createdAt,value
2022-10-03T00:01:51.812Z,99004.59
2022-10-03T00:05:07.100Z,99002.44
2022-10-03T00:08:21.667Z,99006.75
2022-10-03T00:11:33.428Z,99018.84
2022-10-03T00:14:45.754Z,99018.84
2022-10-03T00:17:58.461Z,99029.88
2022-10-03T00:21:20.238Z,99037.13
2022-10-03T00:24:35.820Z,99026.13
2022-10-03T00:27:43.458Z,99026.94
2022-10-03T00:30:56.425Z,99028.28
2022-10-03T00:34:06.854Z,99024.22
2022-10-03T00:37:24.638Z,99033.66
2022-10-03T00:41:00.925Z,99033.66
2022-10-03T00:44:29.385Z,99044.97
2022-10-03T00:47:58.429Z,99053.03
2022-10-03T00:51:11.614Z,99048.44
2022-10-03T00:54:37.436Z,99051.13
2022-10-03T00:58:07.600Z,99043.34
2022-10-03T01:01:24.794Z,99047.66
2022-10-03T01:04:50.207Z,99048.72
2022-10-03T01:08:24.265Z,99044.97
2022-10-03T01:11:44.099Z,99043.59
2022-10-03T01:15:11.985Z,99035.81
2022-10-03T01:18:27.158Z,99025.88
2022-10-03T01:21:43.401Z,99035.81
2022-10-03T01:25:00.110Z,99044.16
2022-10-03T01:28:24.558Z,99036.06
2022-10-03T01:31:36.953Z,99039.00
2022-10-03T01:34:50.173Z,99048.13
2022-10-03T01:38:04.198Z,99048.13
2022-10-03T01:41:13.407Z,99049.50
2022-10-03T01:44:24.901Z,99057.56
2022-10-03T01:47:40.448Z,99061.88
2022-10-03T01:50:55.886Z,99062.16
2022-10-03T01:54:15.508Z,99064.88
2022-10-03T01:57:28.904Z,99075.09
2022-10-03T02:00:41.662Z,99079.94
2022-10-03T02:03:57.623Z,99082.09
2022-10-03T02:07:17.233Z,99085.06
2022-10-03T02:10:30.641Z,99081.81
2022-10-03T02:13:47.313Z,99082.09
2022-10-03T02:17:01.775Z,99095.78
2022-10-03T02:20:15.749Z,99099.56
2022-10-03T02:23:39.497Z,99098.78
2022-10-03T02:27:13.110Z,99087.72
2022-10-03T02:30:22.662Z,99084.47
2022-10-03T02:34:11.830Z,99090.41
2022-10-03T02:37:41.229Z,99092.31
2022-10-03T02:41:19.154Z,99091.50
2022-10-03T02:45:07.007Z,99083.94
2022-10-03T02:48:50.809Z,99084.19
2022-10-03T02:52:18.879Z,99086.06
2022-10-03T02:55:55.785Z,99089.81
2022-10-03T02:59:45.939Z,99077.94
2022-10-03T03:03:21.434Z,99083.28
2022-10-03T03:06:58.384Z,99074.34
2022-10-03T03:10:50.746Z,99073.22
2022-10-03T03:14:31.710Z,99076.09
2022-10-03T03:17:42.070Z,99082.78
2022-10-03T03:21:04.728Z,99078.16
2022-10-03T03:24:26.803Z,99080.00
2022-10-03T03:27:53.673Z,99072.97
2022-10-03T03:31:10.718Z,99076.50
2022-10-03T03:34:24.185Z,99072.41
2022-10-03T03:37:36.927Z,99078.69
2022-10-03T03:40:48.913Z,99084.28
2022-10-03T03:44:14.834Z,99082.16
2022-10-03T03:47:44.379Z,99078.97
2022-10-03T03:51:00.831Z,99076.56
2022-10-03T03:54:32.163Z,99091.06
2022-10-03T03:58:00.208Z,99091.38
2022-10-03T04:01:32.312Z,99093.78
2022-10-03T04:04:48.222Z,99088.16
2022-10-03T04:08:12.511Z,99097.59
2022-10-03T04:11:28.096Z,99097.31
2022-10-03T04:14:47.796Z,99098.69
2022-10-03T04:18:23.674Z,99093.31
2022-10-03T04:21:51.227Z,99101.94
2022-10-03T04:25:16.412Z,99100.84
2022-10-03T04:28:40.989Z,99099.25
2022-10-03T04:31:55.272Z,99089.53
2022-10-03T04:35:23.973Z,99111.31
2022-10-03T04:38:44.691Z,99109.94
2022-10-03T04:41:58.047Z,99117.72
2022-10-03T04:45:30.118Z,99105.13
2022-10-03T04:48:43.073Z,99109.47
2022-10-03T04:51:59.743Z,99111.09
2022-10-03T04:55:10.518Z,99114.06
2022-10-03T04:58:27.835Z,99116.50
2022-10-03T05:01:43.571Z,99111.41
2022-10-03T05:05:11.728Z,99119.50
2022-10-03T05:08:38.499Z,99121.94
2022-10-03T05:11:56.376Z,99128.97
2022-10-03T05:15:17.804Z,99125.19
2022-10-03T05:18:35.056Z,99127.06
2022-10-03T05:21:46.760Z,99126.28
2022-10-03T05:25:04.257Z,99117.13
2022-10-03T05:28:17.806Z,99123.06
2022-10-03T05:31:35.440Z,99139.75
2022-10-03T05:34:55.712Z,99139.47
2022-10-03T05:38:19.216Z,99143.81
2022-10-03T05:41:28.604Z,99158.84
2022-10-03T05:44:41.840Z,99166.06
2022-10-03T05:47:51.889Z,99162.34
2022-10-03T05:51:11.761Z,99167.41
2022-10-03T05:54:43.583Z,99170.41
2022-10-03T05:58:20.111Z,99173.03
2022-10-03T06:01:42.350Z,99180.06
2022-10-03T06:05:07.861Z,99177.09
2022-10-03T06:08:32.856Z,99173.31
2022-10-03T06:12:03.816Z,99168.25
2022-10-03T06:15:55.152Z,99182.56
2022-10-03T06:19:14.897Z,99174.47
2022-10-03T06:22:49.041Z,99185.75
2022-10-03T06:26:42.291Z,99191.97
2022-10-03T06:30:07.668Z,99192.22
2022-10-03T06:33:55.543Z,99198.16
2022-10-03T06:37:42.115Z,99199.25
2022-10-03T06:41:22.601Z,99201.41
2022-10-03T06:44:47.044Z,99210.56
2022-10-03T06:48:08.542Z,99214.06
2022-10-03T06:51:47.313Z,99212.44
2022-10-03T06:55:21.813Z,99215.41
2022-10-03T06:59:13.546Z,99209.53
2022-10-03T07:02:37.149Z,99212.28
2022-10-03T07:06:09.898Z,99219.88
2022-10-03T07:09:54.236Z,99227.69
2022-10-03T07:17:09.915Z,99237.66
2022-10-03T07:21:12.445Z,99242.00
2022-10-03T07:24:45.963Z,99241.22
2022-10-03T07:28:09.469Z,99236.09
2022-10-03T07:31:31.759Z,99252.81
2022-10-03T07:35:51.295Z,99251.50
2022-10-03T07:39:55.514Z,99246.13
2022-10-03T07:43:50.003Z,99250.44
2022-10-03T07:47:46.441Z,99242.38
2022-10-03T07:50:59.233Z,99244.03
2022-10-03T07:54:29.750Z,99244.56
2022-10-03T07:57:48.173Z,99251.09
2022-10-03T08:01:09.463Z,99250.81
2022-10-03T08:04:53.417Z,99252.41
2022-10-03T08:08:23.461Z,99258.31
2022-10-03T08:12:04.370Z,99263.69
2022-10-03T08:15:12.546Z,99271.72
2022-10-03T08:18:38.829Z,99269.31
2022-10-03T08:21:56.737Z,99281.72
2022-10-03T08:25:27.001Z,99277.09
2022-10-03T08:28:51.462Z,99279.25
2022-10-03T08:32:48.534Z,99277.09
2022-10-03T08:36:38.408Z,99276.84
2022-10-03T08:40:05.583Z,99281.16
2022-10-03T08:43:40.507Z,99283.88
2022-10-03T08:47:13.354Z,99279.03
2022-10-03T08:50:45.122Z,99274.97
2022-10-03T08:54:09.838Z,99275.59
2022-10-03T08:57:31.077Z,99267.75
2022-10-03T09:01:00.361Z,99275.59
2022-10-03T09:04:35.822Z,99277.25
2022-10-03T09:08:01.833Z,99278.84
2022-10-03T09:11:56.497Z,99272.91
2022-10-03T09:15:15.207Z,99276.72
2022-10-03T09:18:42.091Z,99270.81
2022-10-03T09:22:23.294Z,99280.56
2022-10-03T09:25:36.502Z,99271.69
2022-10-03T09:28:59.274Z,99267.66
2022-10-03T09:32:31.144Z,99273.34
2022-10-03T09:35:49.856Z,99266.38
2022-10-03T09:39:09.583Z,99269.06
2022-10-03T09:42:50.916Z,99268.53
2022-10-03T09:46:26.220Z,99259.94
2022-10-03T09:49:50.132Z,99261.81
2022-10-03T09:53:20.322Z,99266.97
2022-10-03T09:56:44.118Z,99256.16
2022-10-03T10:00:04.493Z,99257.53
2022-10-03T10:03:50.397Z,99266.97
2022-10-03T10:07:27.139Z,99266.69
2022-10-03T10:11:12.443Z,99264.50
2022-10-03T10:14:39.881Z,99269.53
2022-10-03T10:18:11.462Z,99262.44
2022-10-03T10:21:48.627Z,99263.50
2022-10-03T10:25:20.262Z,99269.47
2022-10-03T10:28:58.158Z,99259.63
2022-10-03T10:32:30.609Z,99266.22
2022-10-03T10:36:09.705Z,99266.75
2022-10-03T10:39:40.730Z,99271.03
2022-10-03T10:43:15.493Z,99273.19
2022-10-03T10:47:03.972Z,99279.75
2022-10-03T10:50:42.030Z,99271.53
2022-10-03T10:54:12.097Z,99266.69
2022-10-03T10:57:51.315Z,99266.47
2022-10-03T11:01:29.785Z,99264.38
2022-10-03T11:05:05.777Z,99259.09
2022-10-03T11:08:41.813Z,99257.25
2022-10-03T11:12:21.622Z,99248.81
2022-10-03T11:16:00.428Z,99245.13
2022-10-03T11:19:45.489Z,99241.81
2022-10-03T11:23:29.933Z,99245.16
2022-10-03T11:27:07.044Z,99245.63
2022-10-03T11:30:24.833Z,99242.28
2022-10-03T11:34:02.314Z,99245.47
2022-10-03T11:37:11.072Z,99251.19
2022-10-03T11:40:29.365Z,99251.19
2022-10-03T11:44:04.452Z,99251.63
2022-10-03T11:47:30.855Z,99245.75
2022-10-03T11:50:46.288Z,99243.94
2022-10-03T11:54:13.253Z,99238.25
2022-10-03T11:57:30.097Z,99235.00
2022-10-03T12:00:37.498Z,99229.88
2022-10-03T12:03:47.364Z,99239.81
2022-10-03T12:07:18.311Z,99236.34
2022-10-03T12:10:39.178Z,99227.09
2022-10-03T12:13:48.252Z,99228.25
2022-10-03T12:17:05.683Z,99225.41
2022-10-03T12:20:23.023Z,99226.69
2022-10-03T12:23:41.506Z,99231.16
2022-10-03T12:26:53.994Z,99222.28
2022-10-03T12:30:00.472Z,99212.66
2022-10-03T12:33:21.253Z,99207.53
2022-10-03T12:36:32.762Z,99210.75
2022-10-03T12:39:45.073Z,99207.53
2022-10-03T12:43:02.325Z,99210.53
2022-10-03T12:46:13.136Z,99208.72
2022-10-03T12:49:20.561Z,99207.66
2022-10-03T12:52:29.066Z,99194.91
2022-10-03T12:55:35.793Z,99191.66
2022-10-03T12:58:51.307Z,99195.16
2022-10-03T13:02:29.862Z,99195.16
2022-10-03T13:05:45.321Z,99190.13
2022-10-03T13:09:03.714Z,99186.66
2022-10-03T13:12:16.602Z,99184.25
2022-10-03T13:16:07.392Z,99174.84
2022-10-03T13:19:16.782Z,99173.16
2022-10-03T13:22:33.106Z,99172.56
2022-10-03T13:25:45.922Z,99172.25
2022-10-03T13:29:17.822Z,99172.97
2022-10-03T13:32:32.325Z,99166.19
2022-10-03T13:36:00.653Z,99164.56
2022-10-03T13:39:26.439Z,99162.38
2022-10-03T13:42:41.268Z,99164.50
2022-10-03T13:45:50.599Z,99160.66
2022-10-03T13:49:02.336Z,99164.44
2022-10-03T13:52:17.139Z,99153.44
2022-10-03T13:55:49.276Z,99156.59
2022-10-03T13:59:02.778Z,99154.72
2022-10-03T14:02:21.234Z,99157.75
2022-10-03T14:05:58.811Z,99149.97
2022-10-03T14:09:44.759Z,99151.91
2022-10-03T14:13:17.865Z,99150.84
2022-10-03T14:16:29.150Z,99138.53
2022-10-03T14:19:42.495Z,99130.50
2022-10-03T14:23:05.391Z,99141.41
2022-10-03T14:26:18.384Z,99135.69
2022-10-03T14:29:33.268Z,99126.81
2022-10-03T14:32:48.446Z,99122.03
2022-10-03T14:36:13.930Z,99119.25
2022-10-03T14:39:33.021Z,99121.09
2022-10-03T14:42:54.056Z,99118.94
2022-10-03T14:46:05.124Z,99125.06
2022-10-03T14:49:47.110Z,99116.81
2022-10-03T14:52:50.683Z,99115.34
2022-10-03T14:56:02.427Z,99119.59
2022-10-03T14:59:16.392Z,99118.50
2022-10-03T15:02:30.542Z,99122.03
2022-10-03T15:05:38.899Z,99119.13
2022-10-03T15:08:46.609Z,99111.78
2022-10-03T15:11:55.949Z,99121.50
2022-10-03T15:15:05.740Z,99108.91
2022-10-03T15:18:18.869Z,99107.63
2022-10-03T15:21:24.223Z,99109.31
2022-10-03T15:24:36.763Z,99116.09
2022-10-03T15:27:46.864Z,99114.28
2022-10-03T15:30:54.636Z,99110.53
2022-10-03T15:34:02.663Z,99112.94
2022-10-03T15:37:15.866Z,99111.66
2022-10-03T15:40:29.113Z,99109.56
2022-10-03T15:43:39.187Z,99111.31
2022-10-03T15:46:48.116Z,99099.16
2022-10-03T15:49:57.593Z,99106.28
2022-10-03T15:53:35.172Z,99103.06
2022-10-03T15:56:44.529Z,99100.47
2022-10-03T15:59:54.245Z,99098.09
2022-10-03T16:03:09.671Z,99098.69
2022-10-03T16:06:21.955Z,99101.16
2022-10-03T16:09:31.911Z,99105.34
2022-10-03T16:12:52.757Z,99108.94
2022-10-03T16:16:18.080Z,99105.00
2022-10-03T16:19:40.633Z,99109.91
2022-10-03T16:22:52.219Z,99101.59
2022-10-03T16:25:59.627Z,99094.94
2022-10-03T16:29:14.770Z,99095.28
2022-10-03T16:32:22.327Z,99092.13
2022-10-03T16:35:36.186Z,99098.09
2022-10-03T16:38:46.802Z,99099.25
2022-10-03T16:41:56.039Z,99093.66
2022-10-03T16:45:02.422Z,99096.94
2022-10-03T16:48:33.042Z,99102.63
2022-10-03T16:51:42.665Z,99108.34
2022-10-03T16:54:53.975Z,99110.78
2022-10-03T16:58:02.429Z,99121.31
2022-10-03T17:01:27.916Z,99122.97
2022-10-03T17:04:35.506Z,99122.13
2022-10-03T17:07:46.847Z,99117.56
2022-10-03T17:10:58.317Z,99116.19
2022-10-03T17:14:07.769Z,99115.38
2022-10-03T17:17:26.483Z,99107.50
2022-10-03T17:20:42.445Z,99106.94
2022-10-03T17:23:54.071Z,99105.81
2022-10-03T17:27:06.787Z,99106.09
2022-10-03T17:30:22.657Z,99104.41
2022-10-03T17:33:37.347Z,99100.63
2022-10-03T17:36:55.646Z,99093.63
2022-10-03T17:40:12.790Z,99098.16
2022-10-03T17:43:26.608Z,99102.97
2022-10-03T17:46:41.098Z,99099.97
2022-10-03T17:49:55.687Z,99103.97
2022-10-03T17:53:02.812Z,99094.50
2022-10-03T17:56:24.485Z,99102.03
2022-10-03T17:59:39.648Z,99094.22
2022-10-03T18:03:01.658Z,99096.03
2022-10-03T18:06:47.749Z,99096.78
2022-10-03T18:09:55.081Z,99100.53
2022-10-03T18:13:06.850Z,99088.13
2022-10-03T18:16:23.664Z,99085.13
2022-10-03T18:19:47.325Z,99087.47
2022-10-03T18:23:01.325Z,99085.59
2022-10-03T18:26:20.127Z,99082.84
2022-10-03T18:29:31.838Z,99075.50
2022-10-03T18:32:40.766Z,99076.28
2022-10-03T18:35:49.152Z,99082.94
2022-10-03T18:39:01.196Z,99087.75
2022-10-03T18:42:12.226Z,99091.50
2022-10-03T18:45:21.973Z,99093.38
2022-10-03T18:48:36.289Z,99090.31
2022-10-03T18:51:44.786Z,99081.94
2022-10-03T18:55:01.872Z,99081.63
2022-10-03T18:58:14.838Z,99080.22
2022-10-03T19:01:25.449Z,99078.31
2022-10-03T19:04:51.351Z,99080.31
2022-10-03T19:08:11.044Z,99089.13
2022-10-03T19:11:26.696Z,99079.97
2022-10-03T19:14:35.815Z,99080.47
2022-10-03T19:17:59.213Z,99090.91
2022-10-03T19:21:13.730Z,99092.72
2022-10-03T19:24:39.920Z,99100.78
2022-10-03T19:27:52.480Z,99097.44
2022-10-03T19:31:05.012Z,99093.34
2022-10-03T19:34:21.201Z,99098.16
2022-10-03T19:37:44.447Z,99097.59
2022-10-03T19:41:05.255Z,99108.00
2022-10-03T19:44:16.897Z,99100.53
2022-10-03T19:47:31.218Z,99094.53
2022-10-03T19:50:39.139Z,99092.66
2022-10-03T19:53:45.066Z,99092.34
2022-10-03T19:56:51.069Z,99090.44
2022-10-03T20:00:01.415Z,99089.06
2022-10-03T20:03:17.721Z,99084.16
2022-10-03T20:06:27.281Z,99083.56
2022-10-03T20:09:33.349Z,99088.09
2022-10-03T20:12:46.498Z,99085.81
2022-10-03T20:15:53.966Z,99082.34
2022-10-03T20:19:07.096Z,99080.81
2022-10-03T20:22:16.267Z,99077.25
2022-10-03T20:25:30.537Z,99084.25
2022-10-03T20:29:01.345Z,99080.66
2022-10-03T20:32:09.054Z,99077.94
2022-10-03T20:35:17.177Z,99082.47
2022-10-03T20:38:33.451Z,99083.28
2022-10-03T20:41:50.733Z,99080.84
2022-10-03T20:45:03.962Z,99076.78
2022-10-03T20:48:14.897Z,99076.78
2022-10-03T20:51:39.647Z,99082.09
2022-10-03T20:54:51.952Z,99073.09
2022-10-03T20:58:07.394Z,99090.94
2022-10-03T21:01:18.638Z,99081.84
2022-10-03T21:04:30.422Z,99086.88
2022-10-03T21:07:39.973Z,99083.56
2022-10-03T21:10:49.729Z,99080.00
2022-10-03T21:13:59.086Z,99083.00
2022-10-03T21:17:05.566Z,99066.94
2022-10-03T21:20:21.100Z,99066.88
2022-10-03T21:23:28.743Z,99055.34
2022-10-03T21:26:39.649Z,99056.94
2022-10-03T21:29:56.581Z,99045.09
2022-10-03T21:33:07.461Z,99047.22
2022-10-03T21:36:23.848Z,99037.25
2022-10-03T21:39:41.614Z,99038.28
2022-10-03T21:42:57.978Z,99039.50
2022-10-03T21:46:13.730Z,99031.75
2022-10-03T21:49:47.684Z,99039.50
2022-10-03T21:53:19.195Z,99038.13
2022-10-03T21:56:48.788Z,99042.38
2022-10-03T22:00:10.169Z,99041.81
2022-10-03T22:03:23.250Z,99030.75
2022-10-03T22:06:32.724Z,99033.66
2022-10-03T22:09:46.905Z,99036.59
2022-10-03T22:12:54.697Z,99030.09
2022-10-03T22:16:08.423Z,99023.75
2022-10-03T22:19:26.657Z,99023.53
2022-10-03T22:22:42.898Z,99025.41
2022-10-03T22:26:05.141Z,99023.69
2022-10-03T22:29:22.811Z,99020.75
2022-10-03T22:32:34.692Z,99015.59
2022-10-03T22:35:51.099Z,99008.84
2022-10-03T22:38:56.580Z,99010.13
2022-10-03T22:42:03.669Z,99013.38
2022-10-03T22:45:10.208Z,99004.53
2022-10-03T22:48:18.953Z,99016.56
2022-10-03T22:51:24.605Z,99005.28
2022-10-03T22:54:36.938Z,99010.53
2022-10-03T22:57:47.535Z,98997.97
2022-10-03T23:00:56.531Z,98997.97
2022-10-03T23:04:02.157Z,98995.31
2022-10-03T23:07:26.981Z,98990.00
2022-10-03T23:10:42.308Z,98987.59
2022-10-03T23:13:48.920Z,98987.84
2022-10-03T23:16:57.646Z,98994.22
2022-10-03T23:20:12.910Z,98993.41
2022-10-03T23:23:24.611Z,98989.38
2022-10-03T23:26:46.376Z,98989.03
2022-10-03T23:30:35.895Z,98991.53
2022-10-03T23:33:52.766Z,98984.78
2022-10-03T23:37:22.661Z,98987.44
2022-10-03T23:40:39.549Z,98989.56
2022-10-03T23:43:51.830Z,98981.78
2022-10-03T23:46:57.692Z,98976.53
2022-10-03T23:50:06.609Z,98975.03
2022-10-03T23:53:21.707Z,98974.69
2022-10-03T23:56:32.533Z,98968.91
2022-10-03T23:59:39.835Z,98958.91
